Latest Weather Observations for Minlaton Airport

IDS60801

Issued at 10:31 pm CDT Tuesday 9 February 2016 (issued every 30 minutes, with the page automatically refreshed every 10 minutes)

About weather observations | Map of weather stations | Latest weather observations for SA | Other Formats
Station Details ID: 022031 Name: MINLATON AERO Lat: -34.75 Lon: 137.53 Height: 32.0 m
Data from the previous 72 hours. | See also: Recent months at Minlaton Airport
Date/Time
CDT
Temp
°C
App
Temp
°C
Dew
Point
Rel
Hum
%
Delta-T
°C
Wind Press
QNH
hPa
Press
MSL
hPa
Rain
since 9 am
mm
Dir
 
Spd
km/h
Gust
km/h
Spd
kts
Gust
kts
09/10:30pm 17.6 14.5 14.5 82 1.8 SSE 24 32 13 17 1016.1 1016.0 0.0
09/10:00pm 17.8 15.4 14.3 80 2.0 SSE 20 26 11 14 1016.1 1016.0 0.0
09/09:30pm 18.4 15.1 13.9 75 2.6 SSE 24 28 13 15 1015.9 1015.8 0.0
09/09:00pm 19.3 15.7 13.0 67 3.6 SSE 24 32 13 17 1015.5 1015.4 0.0
09/08:30pm 20.6 15.8 11.8 57 4.9 SSE 28 33 15 18 1015.5 1015.4 0.0
09/08:00pm 22.4 17.1 12.4 53 5.7 SSE 32 39 17 21 1015.4 1015.3 0.0
09/07:30pm 25.0 19.8 11.6 43 7.6 SE 30 39 16 21 1015.3 1015.2 0.0
09/07:00pm 26.2 19.5 8.2 32 9.7 SSE 33 41 18 22 1015.3 1015.2 0.0
09/06:30pm 27.1 21.2 11.2 37 9.0 SSE 33 41 18 22 1015.3 1015.2 0.0
09/06:00pm 28.7 22.5 9.4 30 10.7 SSE 32 39 17 21 1015.1 1015.0 0.0
09/05:30pm 29.4 23.2 9.5 29 11.1 SSE 32 41 17 22 1015.1 1015.0 0.0
09/05:00pm 30.6 25.2 9.5 27 11.9 SSE 28 37 15 20 1015.3 1015.2 0.0
09/04:30pm 31.7 26.4 9.8 26 12.4 SSE 28 39 15 21 1015.5 1015.4 0.0
09/04:00pm 32.5 27.8 10.5 26 12.7 S 26 33 14 18 1015.7 1015.6 0.0
09/03:30pm 32.4 28.6 9.9 25 12.8 SSE 20 32 11 17 1016.0 1015.9 0.0
09/03:00pm 33.0 29.4 9.7 24 13.3 SSE 19 28 10 15 1016.2 1016.1 0.0
09/02:30pm 32.2 29.5 9.1 24 13.0 SE 13 24 7 13 1016.5 1016.4 0.0
09/02:00pm 33.0 30.1 9.7 24 13.3 SE 15 20 8 11 1016.9 1016.8 0.0
09/01:30pm 31.6 29.4 10.9 28 12.0 ESE 13 19 7 10 1017.2 1017.1 0.0
09/01:00pm 30.7 28.8 10.6 29 11.5 E 11 20 6 11 1017.6 1017.5 0.0
09/12:30pm 30.1 28.2 10.6 30 11.1 ENE 11 20 6 11 1018.1 1018.0 0.0
09/12:00pm 29.1 25.4 10.3 31 10.6 E 20 30 11 16 1018.1 1018.0 0.0
09/11:30am 29.0 25.8 11.1 33 10.2 E 19 28 10 15 1018.4 1018.3 0.0
09/11:00am 27.5 23.8 11.5 37 9.2 ESE 22 30 12 16 1018.5 1018.4 0.0
09/10:30am 26.1 22.9 13.2 44 7.5 SE 22 30 12 16 1018.8 1018.7 0.0
09/10:00am 24.5 20.9 13.1 49 6.6 SE 24 32 13 17 1019.0 1018.9 0.0
09/09:30am 23.1 20.1 14.7 59 5.0 SE 24 32 13 17 1019.4 1019.3 0.0
09/09:00am 21.6 18.8 15.4 68 3.7 SE 24 30 13 16 1019.4 1019.3 0.0
09/08:30am 20.0 18.1 15.8 77 2.5 SE 20 26 11 14 1019.5 1019.4 0.0
09/08:00am 17.5 16.6 15.8 90 1.0 SSE 15 20 8 11 1019.2 1019.1 0.0
09/07:30am 15.0 14.2 14.0 94 0.6 S 11 13 6 7 1019.0 1018.9 0.0
09/07:00am 14.0 12.8 12.9 93 0.6 S 11 13 6 7 1019.0 1018.9 0.0
09/06:30am 14.7 13.8 13.6 93 0.6 S 11 15 6 8 1019.0 1018.9 0.0
09/06:00am 15.1 14.6 13.8 92 0.7 SSE 9 11 5 6 1018.9 1018.8 0.0
09/05:30am 15.9 14.5 14.4 91 0.9 SSE 15 19 8 10 1018.8 1018.7 0.0
09/05:00am 16.4 14.4 14.9 91 0.9 SSE 19 26 10 14 1018.9 1018.8 0.0
09/04:30am 16.4 13.8 14.8 90 0.9 SSE 22 30 12 16 1018.7 1018.6 0.0
09/04:00am 16.6 13.6 14.8 89 1.0 SSE 24 32 13 17 1018.9 1018.8 0.0
09/03:30am 16.7 13.0 14.9 89 1.0 SE 28 35 15 19 1018.9 1018.8 0.0
09/03:00am 16.9 13.1 14.7 87 1.3 SE 28 33 15 18 1019.1 1019.0 0.0
09/02:30am 16.5 14.8 14.7 89 1.0 SSE 17 24 9 13 1019.7 1019.6 0.0
09/02:00am 16.5 14.3 14.5 88 1.1 SE 19 24 10 13 1019.9 1019.8 0.0
09/01:30am 16.7 14.0 14.5 87 1.3 SSE 22 28 12 15 1020.2 1020.1 0.0
09/01:00am 16.8 13.7 14.4 86 1.4 SE 24 30 13 16 1020.5 1020.4 0.0
09/12:30am 16.6 13.0 14.2 86 1.4 SE 26 32 14 17 1020.5 1020.4 0.0
09/12:00am 16.7 13.0 14.0 84 1.5 SE 26 32 14 17 1020.7 1020.6 0.0
 
Date/Time
CDT
Temp
°C
App
Temp
°C
Dew
Point
Rel
Hum
%
Delta-T
°C
Wind Press
QNH
hPa
Press
MSL
hPa
Rain
since 9 am
mm
Dir
 
Spd
km/h
Gust
km/h
Spd
kts
Gust
kts
08/11:30pm 17.0 12.6 14.1 83 1.6 SE 30 39 16 21 1020.8 1020.7 0.0
08/11:00pm 17.2 12.9 14.3 83 1.7 SSE 30 37 16 20 1021.0 1020.9 0.0
08/10:30pm 17.4 12.1 14.3 82 1.8 SSE 35 43 19 23 1021.0 1020.9 0.0
08/10:00pm 17.3 12.5 14.0 81 1.9 SSE 32 41 17 22 1021.0 1020.9 0.0
08/09:30pm 17.6 12.8 14.1 80 2.0 SSE 32 43 17 23 1020.7 1020.6 0.0
08/09:00pm 17.8 13.0 13.9 78 2.2 SSE 32 43 17 23 1020.5 1020.4 0.0
08/08:30pm 18.4 13.0 13.9 75 2.6 SSE 35 44 19 24 1020.3 1020.2 0.0
08/08:00pm 19.4 12.8 13.8 70 3.2 SSE 41 52 22 28 1020.2 1020.1 0.0
08/07:30pm 20.5 14.2 13.5 64 4.0 SSE 39 50 21 27 1020.1 1020.0 0.0
08/07:00pm 21.6 14.8 13.2 59 4.8 SSE 41 50 22 27 1019.8 1019.7 0.0
08/06:30pm 22.2 15.3 12.7 55 5.4 SSE 41 48 22 26 1019.9 1019.8 0.0
08/06:00pm 22.9 16.4 12.8 53 5.8 SE 39 50 21 27 1020.1 1020.0 0.0
08/05:30pm 23.6 16.9 12.3 49 6.4 SE 39 50 21 27 1020.2 1020.1 0.0
08/05:00pm 24.0 17.4 12.6 49 6.5 SE 39 48 21 26 1020.3 1020.2 0.0
08/04:30pm 24.2 17.3 11.5 45 7.1 SE 39 50 21 27 1020.5 1020.4 0.0
08/04:00pm 25.7 19.7 12.2 43 7.8 SE 35 46 19 25 1020.7 1020.6 0.0
08/03:30pm 25.0 18.9 11.9 44 7.4 SSE 35 46 19 25 1020.9 1020.8 0.0
08/03:00pm 25.5 19.5 12.0 43 7.7 SSE 35 48 19 26 1021.2 1021.1 0.0
08/02:30pm 24.7 19.3 10.9 42 7.7 SSE 30 41 16 22 1021.4 1021.3 0.0
08/02:07pm 24.8 19.4 11.0 42 7.7 SSE 30 50 16 27 1021.5 1021.4 0.0
08/02:00pm 25.3 19.7 11.5 42 7.8 SSE 32 44 17 24 1021.6 1021.5 0.0
08/01:30pm 25.0 19.8 11.6 43 7.6 SSE 30 44 16 24 1021.9 1021.8 0.0
08/01:00pm 24.8 19.5 11.4 43 7.6 SSE 30 41 16 22 1022.0 1021.9 0.0
08/12:30pm 24.1 18.4 11.8 46 6.9 SSE 33 43 18 23 1022.2 1022.1 0.0
08/12:00pm 23.9 18.4 11.9 47 6.8 SSE 32 50 17 27 1022.4 1022.3 0.0
08/11:51am 24.2 19.1 13.1 50 6.4 SSE 32 50 17 27 1022.4 1022.3 0.0
08/11:30am 23.9 19.0 12.5 49 6.5 SE 30 43 16 23 1022.5 1022.4 0.0
08/11:00am 22.5 17.5 12.2 52 5.8 SE 30 39 16 21 1022.7 1022.6 0.0
08/10:30am 22.7 18.6 12.6 53 5.7 SE 26 35 14 19 1022.8 1022.7 0.0
08/10:00am 21.9 17.7 12.5 55 5.3 SE 26 35 14 19 1022.8 1022.7 0.0
08/09:30am 20.6 15.4 12.8 61 4.4 SSE 32 41 17 22 1022.8 1022.7 0.0
08/09:00am 19.7 14.5 12.9 65 3.8 SSE 32 39 17 21 1022.6 1022.5 0.0
08/08:30am 18.7 15.0 13.8 73 2.8 SSE 26 33 14 18 1022.5 1022.4 0.0
08/08:00am 16.2 13.9 14.2 88 1.1 S 19 22 10 12 1022.4 1022.3 0.0
08/07:30am 13.8 11.9 12.9 94 0.5 SSE 15 17 8 9 1022.1 1022.0 0.0
08/07:00am 12.6 10.2 11.5 93 0.6 SSE 15 17 8 9 1021.8 1021.7 0.0
08/06:30am 12.4 9.9 11.1 92 0.7 SSE 15 17 8 9 1021.4 1021.3 0.0
08/06:00am 12.9 10.1 11.5 91 0.7 SSE 17 17 9 9 1021.1 1021.0 0.0
08/05:30am 13.3 11.0 11.7 90 0.9 SSE 15 15 8 8 1020.9 1020.8 0.0
08/05:00am 14.4 11.9 12.4 88 1.1 SSE 17 19 9 10 1020.5 1020.4 0.0
08/04:30am 15.1 12.4 13.0 87 1.2 SSE 19 22 10 12 1020.4 1020.3 0.0
08/04:00am 15.6 12.9 13.4 87 1.2 SSE 20 26 11 14 1020.4 1020.3 0.0
08/03:30am 15.1 13.0 13.5 90 0.9 SSE 17 20 9 11 1020.4 1020.3 0.0
08/03:00am 15.1 12.8 13.0 87 1.2 SSE 17 22 9 12 1020.5 1020.4 0.0
08/02:30am 15.4 12.6 13.1 86 1.3 S 20 26 11 14 1020.6 1020.5 0.0
08/02:00am 15.8 12.6 13.1 84 1.5 SSE 22 26 12 14 1020.8 1020.7 0.0
08/01:30am 16.1 12.5 13.0 82 1.7 SSE 24 30 13 16 1021.1 1021.0 0.0
08/01:00am 16.3 12.7 13.2 82 1.7 SSE 24 30 13 16 1021.3 1021.2 0.0
08/12:30am 16.5 12.7 13.6 83 1.6 SSE 26 33 14 18 1021.2 1021.1 0.0
08/12:00am 16.9 12.8 13.8 82 1.8 SSE 28 33 15 18 1021.2 1021.1 0.0
 
Date/Time
CDT
Temp
°C
App
Temp
°C
Dew
Point
Rel
Hum
%
Delta-T
°C
Wind Press
QNH
hPa
Press
MSL
hPa
Rain
since 9 am
mm
Dir
 
Spd
km/h
Gust
km/h
Spd
kts
Gust
kts
07/11:30pm 17.0 12.9 13.7 81 1.9 SSE 28 35 15 19 1021.0 1020.9 0.0
07/11:00pm 17.0 13.3 13.9 82 1.8 SSE 26 32 14 17 1021.0 1020.9 0.0
07/10:30pm 17.2 13.1 13.9 81 1.9 SSE 28 35 15 19 1020.9 1020.8 0.0
07/10:00pm 17.5 12.7 14.0 80 2.0 SSE 32 43 17 23 1020.6 1020.5 0.0
07/09:30pm 17.9 13.0 14.4 80 2.0 SSE 33 41 18 22 1020.2 1020.1 0.0
07/09:00pm 18.3 13.6 14.4 78 2.2 SSE 32 43 17 23 1020.0 1019.9 0.0
07/08:30pm 19.0 14.3 14.3 74 2.7 SSE 32 41 17 22 1019.6 1019.5 0.0
07/08:00pm 20.2 14.9 14.1 68 3.5 SSE 35 44 19 24 1019.0 1018.9 0.0
07/07:30pm 21.6 16.3 14.3 63 4.3 SSE 35 43 19 23 1018.6 1018.5 0.0
07/07:00pm 23.1 18.1 14.1 57 5.3 SSE 33 43 18 23 1018.1 1018.0 0.0
07/06:30pm 24.2 19.2 14.0 53 6.0 S 33 46 18 25 1017.9 1017.8 0.0
07/06:00pm 25.2 19.9 13.1 47 7.0 SSE 33 41 18 22 1017.7 1017.6 0.0
07/05:30pm 26.0 21.3 13.2 45 7.5 S 30 39 16 21 1017.8 1017.7 0.0
07/05:00pm 26.7 21.8 12.4 41 8.3 S 30 37 16 20 1017.5 1017.4 0.0
07/04:30pm 27.1 22.2 11.2 37 9.0 S 28 37 15 20 1017.5 1017.4 0.0
07/04:00pm 27.9 23.8 11.5 36 9.4 S 24 39 13 21 1017.6 1017.5 0.0
07/03:30pm 28.6 24.5 11.6 34 9.8 S 24 35 13 19 1017.6 1017.5 0.0
07/03:00pm 28.6 24.3 12.1 36 9.6 S 26 35 14 19 1017.7 1017.6 0.0
07/02:30pm 28.5 24.7 12.4 37 9.4 S 24 39 13 21 1017.8 1017.7 0.0
07/02:00pm 27.8 23.8 11.8 37 9.2 S 24 32 13 17 1018.0 1017.9 0.0
07/01:30pm 27.5 23.2 11.9 38 9.0 S 26 35 14 19 1018.1 1018.0 0.0
07/01:00pm 27.1 23.1 13.1 42 8.2 S 26 37 14 20 1018.2 1018.1 0.0
07/12:30pm 26.8 23.5 13.9 45 7.7 S 24 33 13 18 1018.3 1018.2 0.0
07/12:00pm 26.6 23.3 14.0 46 7.5 S 24 32 13 17 1018.3 1018.2 0.0
07/11:30am 25.3 22.3 14.7 51 6.3 S 24 32 13 17 1018.4 1018.3 0.0
07/11:00am 24.5 22.1 15.4 57 5.5 S 22 32 12 17 1018.3 1018.2 0.0
07/10:30am 23.7 21.0 15.5 60 4.9 SSE 24 32 13 17 1018.4 1018.3 0.0
07/10:00am 22.6 20.3 15.7 65 4.1 SSE 22 35 12 19 1018.5 1018.4 0.0
07/09:30am 21.7 18.9 16.4 72 3.2 SSE 26 32 14 17 1018.4 1018.3 0.0
07/09:00am 20.4 17.2 16.4 78 2.4 S 28 33 15 18 1018.2 1018.1 0.0
07/08:30am 18.9 16.8 16.3 85 1.6 S 22 30 12 16 1018.0 1017.9 0.0
07/08:00am 17.6 17.2 16.3 92 0.8 S 13 15 7 8 1017.7 1017.6 0.0
07/07:30am 16.1 14.9 15.1 94 0.6 S 15 17 8 9 1017.3 1017.2 0.0
07/07:00am 14.9 13.0 14.1 95 0.5 SSE 17 19 9 10 1017.1 1017.0 0.0
07/06:30am 15.0 13.0 14.0 94 0.6 S 17 19 9 10 1017.1 1017.0 0.0
07/06:00am 15.5 13.7 14.5 94 0.6 S 17 19 9 10 1016.9 1016.8 0.0
07/05:30am 15.8 14.1 14.8 94 0.6 S 17 20 9 11 1016.6 1016.5 0.0
07/05:00am 15.8 13.7 14.8 94 0.6 S 19 22 10 12 1016.7 1016.6 0.0
07/04:30am 15.6 13.8 14.5 93 0.6 SSE 17 19 9 10 1016.0 1015.9 0.0
07/04:00am 16.1 14.5 15.0 93 0.6 SSE 17 20 9 11 1015.7 1015.6 0.0
07/03:30am 16.4 13.6 15.3 93 0.6 SE 24 30 13 16 1015.3 1015.2 0.0
07/03:00am 16.3 13.8 15.2 93 0.6 SE 22 26 12 14 1015.4 1015.3 0.0
07/02:30am 16.4 14.5 15.3 93 0.6 SE 19 22 10 12 1015.3 1015.2 0.0
07/02:00am 16.3 14.2 15.2 93 0.6 SSE 20 26 11 14 1015.6 1015.5 0.0
07/01:30am 16.6 14.5 15.3 92 0.8 SSE 20 24 11 13 1015.9 1015.8 0.0
07/01:00am 16.9 14.5 15.4 91 0.9 SSE 22 26 12 14 1016.1 1016.0 0.0
07/12:30am 17.0 13.5 15.5 91 0.9 SSE 28 35 15 19 1016.1 1016.0 0.0
07/12:00am 17.3 13.9 15.8 91 0.9 SSE 28 35 15 19 1016.3 1016.2 0.0
 
Date/Time
CDT
Temp
°C
App
Temp
°C
Dew
Point
Rel
Hum
%
Delta-T
°C
Wind Press
QNH
hPa
Press
MSL
hPa
Rain
since 9 am
mm
Dir
 
Spd
km/h
Gust
km/h
Spd
kts
Gust
kts
06/11:30pm 17.4 14.0 15.7 90 1.0 SSE 28 35 15 19 1016.1 1016.0 0.0
06/11:00pm 17.6 14.2 15.9 90 1.0 SSE 28 37 15 20 1016.2 1016.1 0.0

Other Formats:

Comma delimited format used in spreadsheet applications
http://www.bom.gov.au/fwo/IDS60801/IDS60801.95659.axf

JavaScript Object Notation format (JSON) in row-major order
http://www.bom.gov.au/fwo/IDS60801/IDS60801.95659.json